sensor_id;sensor_type;location;lat;lon;timestamp;P1;durP1;ratioP1;P2;durP2;ratioP2
8480;SDS011;4277;51.354;6.740;2022-10-31T00:01:17;12.80;;;7.23;;
8480;SDS011;4277;51.354;6.740;2022-10-31T00:03:43;12.80;;;6.70;;
8480;SDS011;4277;51.354;6.740;2022-10-31T00:06:10;12.50;;;7.23;;
8480;SDS011;4277;51.354;6.740;2022-10-31T00:08:36;13.90;;;7.20;;
8480;SDS011;4277;51.354;6.740;2022-10-31T00:11:02;11.53;;;7.27;;
8480;SDS011;4277;51.354;6.740;2022-10-31T00:13:28;11.47;;;6.77;;
8480;SDS011;4277;51.354;6.740;2022-10-31T00:15:54;12.80;;;6.40;;
8480;SDS011;4277;51.354;6.740;2022-10-31T00:18:20;11.00;;;6.40;;
8480;SDS011;4277;51.354;6.740;2022-10-31T00:20:46;10.20;;;6.13;;
8480;SDS011;4277;51.354;6.740;2022-10-31T00:23:12;12.47;;;6.63;;
8480;SDS011;4277;51.354;6.740;2022-10-31T00:25:38;10.73;;;6.60;;
8480;SDS011;4277;51.354;6.740;2022-10-31T00:28:05;10.30;;;6.70;;
8480;SDS011;4277;51.354;6.740;2022-10-31T00:30:31;14.60;;;7.13;;
8480;SDS011;4277;51.354;6.740;2022-10-31T00:32:58;11.50;;;7.40;;
8480;SDS011;4277;51.354;6.740;2022-10-31T00:35:24;11.00;;;7.50;;
8480;SDS011;4277;51.354;6.740;2022-10-31T00:37:50;13.50;;;7.53;;
8480;SDS011;4277;51.354;6.740;2022-10-31T00:40:16;14.43;;;7.17;;
8480;SDS011;4277;51.354;6.740;2022-10-31T00:42:41;11.30;;;6.80;;
8480;SDS011;4277;51.354;6.740;2022-10-31T00:45:10;11.63;;;7.73;;
8480;SDS011;4277;51.354;6.740;2022-10-31T00:47:36;11.10;;;7.70;;
8480;SDS011;4277;51.354;6.740;2022-10-31T00:50:04;8.97;;;7.20;;
8480;SDS011;4277;51.354;6.740;2022-10-31T00:52:30;14.20;;;6.70;;
8480;SDS011;4277;51.354;6.740;2022-10-31T00:54:56;10.60;;;7.43;;
8480;SDS011;4277;51.354;6.740;2022-10-31T00:57:22;12.93;;;7.70;;
8480;SDS011;4277;51.354;6.740;2022-10-31T00:59:48;10.83;;;7.20;;
8480;SDS011;4277;51.354;6.740;2022-10-31T01:02:14;13.87;;;7.20;;
8480;SDS011;4277;51.354;6.740;2022-10-31T01:04:40;14.17;;;7.60;;
8480;SDS011;4277;51.354;6.740;2022-10-31T01:07:06;10.67;;;7.33;;
8480;SDS011;4277;51.354;6.740;2022-10-31T01:09:32;17.90;;;8.60;;
8480;SDS011;4277;51.354;6.740;2022-10-31T01:11:57;12.10;;;7.53;;
8480;SDS011;4277;51.354;6.740;2022-10-31T01:14:23;14.17;;;8.10;;
8480;SDS011;4277;51.354;6.740;2022-10-31T01:16:50;13.67;;;8.33;;
8480;SDS011;4277;51.354;6.740;2022-10-31T01:19:15;13.40;;;8.00;;
8480;SDS011;4277;51.354;6.740;2022-10-31T01:21:41;13.90;;;8.47;;
8480;SDS011;4277;51.354;6.740;2022-10-31T01:24:07;13.30;;;8.20;;
8480;SDS011;4277;51.354;6.740;2022-10-31T01:26:33;12.00;;;7.80;;
8480;SDS011;4277;51.354;6.740;2022-10-31T01:29:00;15.07;;;8.10;;
8480;SDS011;4277;51.354;6.740;2022-10-31T01:31:28;10.00;;;7.07;;
8480;SDS011;4277;51.354;6.740;2022-10-31T01:33:54;11.90;;;7.50;;
8480;SDS011;4277;51.354;6.740;2022-10-31T01:36:25;13.17;;;8.00;;
8480;SDS011;4277;51.354;6.740;2022-10-31T01:38:52;13.30;;;7.83;;
8480;SDS011;4277;51.354;6.740;2022-10-31T01:41:19;12.40;;;8.67;;
8480;SDS011;4277;51.354;6.740;2022-10-31T01:43:50;13.30;;;8.17;;
8480;SDS011;4277;51.354;6.740;2022-10-31T01:48:55;12.47;;;7.67;;
8480;SDS011;4277;51.354;6.740;2022-10-31T01:51:22;16.07;;;8.40;;
8480;SDS011;4277;51.354;6.740;2022-10-31T01:53:49;9.67;;;6.97;;
8480;SDS011;4277;51.354;6.740;2022-10-31T01:56:17;11.83;;;7.60;;
8480;SDS011;4277;51.354;6.740;2022-10-31T01:58:43;15.53;;;7.83;;
8480;SDS011;4277;51.354;6.740;2022-10-31T02:01:10;12.03;;;7.50;;
8480;SDS011;4277;51.354;6.740;2022-10-31T02:03:38;15.20;;;7.77;;
8480;SDS011;4277;51.354;6.740;2022-10-31T02:06:04;12.77;;;7.87;;
8480;SDS011;4277;51.354;6.740;2022-10-31T02:08:31;10.77;;;7.07;;
8480;SDS011;4277;51.354;6.740;2022-10-31T02:10:59;14.10;;;8.67;;
8480;SDS011;4277;51.354;6.740;2022-10-31T02:13:26;14.70;;;7.50;;
8480;SDS011;4277;51.354;6.740;2022-10-31T02:15:55;14.00;;;7.57;;
8480;SDS011;4277;51.354;6.740;2022-10-31T02:18:21;15.63;;;7.70;;
8480;SDS011;4277;51.354;6.740;2022-10-31T02:20:53;11.23;;;7.93;;
8480;SDS011;4277;51.354;6.740;2022-10-31T02:23:27;13.57;;;7.87;;
8480;SDS011;4277;51.354;6.740;2022-10-31T02:26:12;13.53;;;8.40;;
8480;SDS011;4277;51.354;6.740;2022-10-31T02:33:43;12.57;;;8.13;;
8480;SDS011;4277;51.354;6.740;2022-10-31T02:38:47;13.30;;;8.40;;
8480;SDS011;4277;51.354;6.740;2022-10-31T02:44:05;13.43;;;8.27;;
8480;SDS011;4277;51.354;6.740;2022-10-31T02:46:34;16.93;;;9.30;;
8480;SDS011;4277;51.354;6.740;2022-10-31T02:49:05;13.03;;;8.23;;
8480;SDS011;4277;51.354;6.740;2022-10-31T02:51:33;14.63;;;8.50;;
8480;SDS011;4277;51.354;6.740;2022-10-31T02:54:00;11.63;;;8.33;;
8480;SDS011;4277;51.354;6.740;2022-10-31T02:56:26;13.47;;;8.17;;
8480;SDS011;4277;51.354;6.740;2022-10-31T02:58:56;10.63;;;8.23;;
8480;SDS011;4277;51.354;6.740;2022-10-31T03:01:26;13.27;;;8.17;;
8480;SDS011;4277;51.354;6.740;2022-10-31T03:04:07;13.53;;;8.00;;
8480;SDS011;4277;51.354;6.740;2022-10-31T03:06:57;16.13;;;7.93;;
8480;SDS011;4277;51.354;6.740;2022-10-31T03:11:53;13.17;;;7.80;;
8480;SDS011;4277;51.354;6.740;2022-10-31T03:14:24;12.37;;;7.50;;
8480;SDS011;4277;51.354;6.740;2022-10-31T03:16:51;11.13;;;7.43;;
8480;SDS011;4277;51.354;6.740;2022-10-31T03:19:29;11.83;;;8.10;;
8480;SDS011;4277;51.354;6.740;2022-10-31T03:21:59;13.43;;;7.80;;
8480;SDS011;4277;51.354;6.740;2022-10-31T03:24:27;15.23;;;8.13;;
8480;SDS011;4277;51.354;6.740;2022-10-31T03:26:54;13.43;;;7.80;;
8480;SDS011;4277;51.354;6.740;2022-10-31T03:29:22;11.17;;;7.70;;
8480;SDS011;4277;51.354;6.740;2022-10-31T03:31:51;14.13;;;7.40;;
8480;SDS011;4277;51.354;6.740;2022-10-31T03:34:20;14.73;;;7.77;;
8480;SDS011;4277;51.354;6.740;2022-10-31T03:36:46;12.67;;;7.63;;
8480;SDS011;4277;51.354;6.740;2022-10-31T03:39:13;13.53;;;8.07;;
8480;SDS011;4277;51.354;6.740;2022-10-31T03:41:42;14.87;;;7.07;;
8480;SDS011;4277;51.354;6.740;2022-10-31T03:44:12;13.80;;;7.73;;
8480;SDS011;4277;51.354;6.740;2022-10-31T03:46:39;11.80;;;7.43;;
8480;SDS011;4277;51.354;6.740;2022-10-31T03:49:05;13.60;;;7.23;;
8480;SDS011;4277;51.354;6.740;2022-10-31T03:51:33;11.30;;;7.30;;
8480;SDS011;4277;51.354;6.740;2022-10-31T03:54:06;14.57;;;7.87;;
8480;SDS011;4277;51.354;6.740;2022-10-31T03:56:38;12.50;;;7.67;;
8480;SDS011;4277;51.354;6.740;2022-10-31T03:59:07;13.53;;;7.63;;
8480;SDS011;4277;51.354;6.740;2022-10-31T04:01:37;11.70;;;7.30;;
8480;SDS011;4277;51.354;6.740;2022-10-31T04:04:05;10.63;;;7.27;;
8480;SDS011;4277;51.354;6.740;2022-10-31T04:06:32;10.23;;;6.87;;
8480;SDS011;4277;51.354;6.740;2022-10-31T04:09:00;11.97;;;7.27;;
8480;SDS011;4277;51.354;6.740;2022-10-31T04:11:28;13.10;;;6.67;;
8480;SDS011;4277;51.354;6.740;2022-10-31T04:13:55;13.70;;;7.40;;
8480;SDS011;4277;51.354;6.740;2022-10-31T04:16:22;7.97;;;6.50;;
8480;SDS011;4277;51.354;6.740;2022-10-31T04:18:49;10.10;;;6.97;;
8480;SDS011;4277;51.354;6.740;2022-10-31T04:21:15;11.17;;;6.47;;
8480;SDS011;4277;51.354;6.740;2022-10-31T04:23:41;10.00;;;6.63;;
8480;SDS011;4277;51.354;6.740;2022-10-31T04:26:08;11.37;;;6.90;;
8480;SDS011;4277;51.354;6.740;2022-10-31T04:28:36;8.97;;;6.23;;
8480;SDS011;4277;51.354;6.740;2022-10-31T04:31:02;10.93;;;6.30;;
8480;SDS011;4277;51.354;6.740;2022-10-31T04:33:28;10.87;;;6.57;;
8480;SDS011;4277;51.354;6.740;2022-10-31T04:35:54;15.77;;;6.33;;
8480;SDS011;4277;51.354;6.740;2022-10-31T04:38:19;8.93;;;6.53;;
8480;SDS011;4277;51.354;6.740;2022-10-31T04:40:45;10.17;;;7.23;;
8480;SDS011;4277;51.354;6.740;2022-10-31T04:43:11;9.87;;;6.77;;
8480;SDS011;4277;51.354;6.740;2022-10-31T04:45:37;15.60;;;7.77;;
8480;SDS011;4277;51.354;6.740;2022-10-31T04:48:03;9.70;;;7.63;;
8480;SDS011;4277;51.354;6.740;2022-10-31T04:50:29;11.87;;;7.90;;
8480;SDS011;4277;51.354;6.740;2022-10-31T04:52:55;13.40;;;7.70;;
8480;SDS011;4277;51.354;6.740;2022-10-31T04:55:21;11.23;;;8.10;;
8480;SDS011;4277;51.354;6.740;2022-10-31T04:57:47;10.13;;;7.57;;
8480;SDS011;4277;51.354;6.740;2022-10-31T05:00:15;10.77;;;7.27;;
8480;SDS011;4277;51.354;6.740;2022-10-31T05:02:47;12.93;;;7.33;;
8480;SDS011;4277;51.354;6.740;2022-10-31T05:05:14;10.23;;;6.80;;
8480;SDS011;4277;51.354;6.740;2022-10-31T05:07:41;11.63;;;7.13;;
8480;SDS011;4277;51.354;6.740;2022-10-31T05:10:08;9.40;;;6.97;;
8480;SDS011;4277;51.354;6.740;2022-10-31T05:12:34;11.33;;;6.57;;
8480;SDS011;4277;51.354;6.740;2022-10-31T05:15:00;9.10;;;6.60;;
8480;SDS011;4277;51.354;6.740;2022-10-31T05:17:26;10.87;;;6.27;;
8480;SDS011;4277;51.354;6.740;2022-10-31T05:19:52;10.33;;;6.00;;
8480;SDS011;4277;51.354;6.740;2022-10-31T05:22:18;11.73;;;6.53;;
8480;SDS011;4277;51.354;6.740;2022-10-31T05:24:44;10.23;;;6.50;;
8480;SDS011;4277;51.354;6.740;2022-10-31T05:27:10;10.10;;;6.90;;
8480;SDS011;4277;51.354;6.740;2022-10-31T05:29:36;11.07;;;6.97;;
8480;SDS011;4277;51.354;6.740;2022-10-31T05:32:02;15.40;;;7.20;;
8480;SDS011;4277;51.354;6.740;2022-10-31T05:34:28;10.83;;;6.83;;
8480;SDS011;4277;51.354;6.740;2022-10-31T05:36:54;11.43;;;7.50;;
8480;SDS011;4277;51.354;6.740;2022-10-31T05:39:20;10.13;;;7.27;;
8480;SDS011;4277;51.354;6.740;2022-10-31T05:41:46;11.87;;;8.13;;
8480;SDS011;4277;51.354;6.740;2022-10-31T05:44:11;10.93;;;7.43;;
8480;SDS011;4277;51.354;6.740;2022-10-31T05:46:37;11.67;;;7.67;;
8480;SDS011;4277;51.354;6.740;2022-10-31T05:49:03;12.13;;;7.40;;
8480;SDS011;4277;51.354;6.740;2022-10-31T05:51:29;12.07;;;7.00;;
8480;SDS011;4277;51.354;6.740;2022-10-31T05:53:55;14.17;;;7.67;;
8480;SDS011;4277;51.354;6.740;2022-10-31T05:56:21;11.53;;;7.60;;
8480;SDS011;4277;51.354;6.740;2022-10-31T05:58:47;13.90;;;8.07;;
8480;SDS011;4277;51.354;6.740;2022-10-31T06:01:13;10.67;;;7.90;;
8480;SDS011;4277;51.354;6.740;2022-10-31T06:03:39;10.00;;;6.93;;
8480;SDS011;4277;51.354;6.740;2022-10-31T06:06:05;9.30;;;6.80;;
8480;SDS011;4277;51.354;6.740;2022-10-31T06:08:31;9.37;;;7.00;;
8480;SDS011;4277;51.354;6.740;2022-10-31T06:10:57;11.27;;;7.40;;
8480;SDS011;4277;51.354;6.740;2022-10-31T06:13:23;9.27;;;6.80;;
8480;SDS011;4277;51.354;6.740;2022-10-31T06:15:49;10.03;;;7.27;;
8480;SDS011;4277;51.354;6.740;2022-10-31T06:18:14;12.50;;;7.57;;
8480;SDS011;4277;51.354;6.740;2022-10-31T06:20:40;12.10;;;7.63;;
8480;SDS011;4277;51.354;6.740;2022-10-31T06:23:06;10.23;;;7.43;;
8480;SDS011;4277;51.354;6.740;2022-10-31T06:25:32;13.53;;;7.60;;
8480;SDS011;4277;51.354;6.740;2022-10-31T06:27:59;11.10;;;8.03;;
8480;SDS011;4277;51.354;6.740;2022-10-31T06:30:25;14.07;;;8.30;;
8480;SDS011;4277;51.354;6.740;2022-10-31T06:32:51;12.07;;;8.23;;
8480;SDS011;4277;51.354;6.740;2022-10-31T06:35:17;16.03;;;8.90;;
8480;SDS011;4277;51.354;6.740;2022-10-31T06:37:50;13.47;;;8.13;;
8480;SDS011;4277;51.354;6.740;2022-10-31T06:40:16;12.20;;;8.00;;
8480;SDS011;4277;51.354;6.740;2022-10-31T06:42:41;11.90;;;7.70;;
8480;SDS011;4277;51.354;6.740;2022-10-31T06:45:07;14.50;;;7.60;;
8480;SDS011;4277;51.354;6.740;2022-10-31T06:47:33;12.07;;;7.40;;
8480;SDS011;4277;51.354;6.740;2022-10-31T06:49:59;12.50;;;7.37;;
8480;SDS011;4277;51.354;6.740;2022-10-31T06:52:25;12.90;;;7.50;;
8480;SDS011;4277;51.354;6.740;2022-10-31T06:54:51;13.37;;;7.63;;
8480;SDS011;4277;51.354;6.740;2022-10-31T06:57:17;12.33;;;7.87;;
8480;SDS011;4277;51.354;6.740;2022-10-31T06:59:43;11.43;;;7.97;;
8480;SDS011;4277;51.354;6.740;2022-10-31T07:02:09;16.97;;;8.80;;
8480;SDS011;4277;51.354;6.740;2022-10-31T07:04:35;12.07;;;8.20;;
8480;SDS011;4277;51.354;6.740;2022-10-31T07:07:01;13.47;;;8.20;;
8480;SDS011;4277;51.354;6.740;2022-10-31T07:09:27;11.87;;;8.13;;
8480;SDS011;4277;51.354;6.740;2022-10-31T07:11:53;14.83;;;8.37;;
8480;SDS011;4277;51.354;6.740;2022-10-31T07:14:19;13.53;;;8.70;;
8480;SDS011;4277;51.354;6.740;2022-10-31T07:16:49;11.00;;;8.00;;
8480;SDS011;4277;51.354;6.740;2022-10-31T07:19:15;13.90;;;8.63;;
8480;SDS011;4277;51.354;6.740;2022-10-31T07:21:41;13.83;;;7.57;;
8480;SDS011;4277;51.354;6.740;2022-10-31T07:24:07;15.57;;;7.47;;
8480;SDS011;4277;51.354;6.740;2022-10-31T07:26:33;12.33;;;7.30;;
8480;SDS011;4277;51.354;6.740;2022-10-31T07:28:59;11.77;;;7.60;;
8480;SDS011;4277;51.354;6.740;2022-10-31T07:31:25;13.20;;;7.33;;
8480;SDS011;4277;51.354;6.740;2022-10-31T07:33:51;10.70;;;6.97;;
8480;SDS011;4277;51.354;6.740;2022-10-31T07:36:17;11.73;;;7.40;;
8480;SDS011;4277;51.354;6.740;2022-10-31T07:38:43;13.40;;;7.47;;
8480;SDS011;4277;51.354;6.740;2022-10-31T07:41:09;12.07;;;8.23;;
8480;SDS011;4277;51.354;6.740;2022-10-31T07:43:36;13.37;;;8.80;;
8480;SDS011;4277;51.354;6.740;2022-10-31T07:46:02;15.10;;;8.77;;
8480;SDS011;4277;51.354;6.740;2022-10-31T07:48:28;15.63;;;9.37;;
8480;SDS011;4277;51.354;6.740;2022-10-31T07:50:54;15.83;;;10.00;;
8480;SDS011;4277;51.354;6.740;2022-10-31T07:53:20;14.43;;;9.20;;
8480;SDS011;4277;51.354;6.740;2022-10-31T07:55:46;15.10;;;8.37;;
8480;SDS011;4277;51.354;6.740;2022-10-31T07:58:13;11.10;;;8.20;;
8480;SDS011;4277;51.354;6.740;2022-10-31T08:00:41;12.57;;;9.00;;
8480;SDS011;4277;51.354;6.740;2022-10-31T08:03:08;13.77;;;9.50;;
8480;SDS011;4277;51.354;6.740;2022-10-31T08:05:35;16.10;;;9.73;;
8480;SDS011;4277;51.354;6.740;2022-10-31T08:08:01;15.50;;;10.23;;
8480;SDS011;4277;51.354;6.740;2022-10-31T08:10:27;14.17;;;9.70;;
8480;SDS011;4277;51.354;6.740;2022-10-31T08:13:03;13.93;;;9.10;;
8480;SDS011;4277;51.354;6.740;2022-10-31T08:15:29;16.00;;;9.50;;
8480;SDS011;4277;51.354;6.740;2022-10-31T08:17:55;15.00;;;9.03;;
8480;SDS011;4277;51.354;6.740;2022-10-31T08:20:21;10.67;;;7.70;;
8480;SDS011;4277;51.354;6.740;2022-10-31T08:22:58;15.37;;;9.27;;
8480;SDS011;4277;51.354;6.740;2022-10-31T08:25:24;12.57;;;9.30;;
8480;SDS011;4277;51.354;6.740;2022-10-31T08:27:54;16.40;;;9.90;;
8480;SDS011;4277;51.354;6.740;2022-10-31T08:30:20;16.10;;;10.87;;
8480;SDS011;4277;51.354;6.740;2022-10-31T08:32:47;17.33;;;11.07;;
8480;SDS011;4277;51.354;6.740;2022-10-31T08:35:13;17.97;;;10.47;;
8480;SDS011;4277;51.354;6.740;2022-10-31T08:37:39;14.60;;;10.70;;
8480;SDS011;4277;51.354;6.740;2022-10-31T08:40:05;16.67;;;11.30;;
8480;SDS011;4277;51.354;6.740;2022-10-31T08:42:31;19.77;;;11.70;;
8480;SDS011;4277;51.354;6.740;2022-10-31T08:44:57;20.13;;;12.20;;
8480;SDS011;4277;51.354;6.740;2022-10-31T08:47:23;17.67;;;12.03;;
8480;SDS011;4277;51.354;6.740;2022-10-31T08:49:49;19.43;;;12.33;;
8480;SDS011;4277;51.354;6.740;2022-10-31T08:52:15;22.13;;;13.23;;
8480;SDS011;4277;51.354;6.740;2022-10-31T08:54:41;18.27;;;12.53;;
8480;SDS011;4277;51.354;6.740;2022-10-31T08:57:07;20.50;;;12.63;;
8480;SDS011;4277;51.354;6.740;2022-10-31T08:59:33;19.20;;;11.70;;
8480;SDS011;4277;51.354;6.740;2022-10-31T09:01:59;17.80;;;11.57;;
8480;SDS011;4277;51.354;6.740;2022-10-31T09:04:25;23.20;;;14.07;;
8480;SDS011;4277;51.354;6.740;2022-10-31T09:06:51;16.37;;;10.93;;
8480;SDS011;4277;51.354;6.740;2022-10-31T09:09:17;20.70;;;13.80;;
8480;SDS011;4277;51.354;6.740;2022-10-31T09:11:42;16.40;;;11.50;;
8480;SDS011;4277;51.354;6.740;2022-10-31T09:14:08;15.80;;;11.10;;
8480;SDS011;4277;51.354;6.740;2022-10-31T09:16:34;16.77;;;11.53;;
8480;SDS011;4277;51.354;6.740;2022-10-31T09:19:00;25.80;;;13.67;;
8480;SDS011;4277;51.354;6.740;2022-10-31T09:21:26;17.00;;;11.00;;
8480;SDS011;4277;51.354;6.740;2022-10-31T09:23:52;17.10;;;11.87;;
8480;SDS011;4277;51.354;6.740;2022-10-31T09:26:18;19.27;;;12.20;;
8480;SDS011;4277;51.354;6.740;2022-10-31T09:28:45;21.00;;;12.77;;
8480;SDS011;4277;51.354;6.740;2022-10-31T09:31:11;18.00;;;11.10;;
8480;SDS011;4277;51.354;6.740;2022-10-31T09:33:37;21.30;;;11.60;;
8480;SDS011;4277;51.354;6.740;2022-10-31T09:36:03;22.07;;;12.63;;
8480;SDS011;4277;51.354;6.740;2022-10-31T09:38:29;17.93;;;11.30;;
8480;SDS011;4277;51.354;6.740;2022-10-31T09:41:04;17.70;;;11.70;;
8480;SDS011;4277;51.354;6.740;2022-10-31T09:43:36;18.23;;;11.17;;
8480;SDS011;4277;51.354;6.740;2022-10-31T09:54:11;20.63;;;12.27;;
8480;SDS011;4277;51.354;6.740;2022-10-31T09:56:38;19.13;;;12.13;;
8480;SDS011;4277;51.354;6.740;2022-10-31T09:59:05;21.93;;;12.33;;
8480;SDS011;4277;51.354;6.740;2022-10-31T10:06:44;19.00;;;10.57;;
8480;SDS011;4277;51.354;6.740;2022-10-31T10:09:10;14.30;;;10.20;;
8480;SDS011;4277;51.354;6.740;2022-10-31T10:14:24;16.67;;;11.23;;
8480;SDS011;4277;51.354;6.740;2022-10-31T10:16:57;18.87;;;12.03;;
8480;SDS011;4277;51.354;6.740;2022-10-31T10:27:41;15.80;;;10.63;;
8480;SDS011;4277;51.354;6.740;2022-10-31T10:29:49;17.57;;;10.37;;
8480;SDS011;4277;51.354;6.740;2022-10-31T10:32:23;14.83;;;10.60;;
8480;SDS011;4277;51.354;6.740;2022-10-31T10:34:51;19.20;;;10.73;;
8480;SDS011;4277;51.354;6.740;2022-10-31T10:37:21;23.70;;;12.50;;
8480;SDS011;4277;51.354;6.740;2022-10-31T10:39:49;19.23;;;12.00;;
8480;SDS011;4277;51.354;6.740;2022-10-31T10:42:16;19.83;;;12.70;;
8480;SDS011;4277;51.354;6.740;2022-10-31T10:45:09;17.87;;;10.60;;
8480;SDS011;4277;51.354;6.740;2022-10-31T10:48:01;18.30;;;11.67;;
8480;SDS011;4277;51.354;6.740;2022-10-31T10:50:31;19.30;;;12.23;;
8480;SDS011;4277;51.354;6.740;2022-10-31T10:53:06;18.73;;;10.97;;
8480;SDS011;4277;51.354;6.740;2022-10-31T10:55:40;27.43;;;12.73;;
8480;SDS011;4277;51.354;6.740;2022-10-31T10:58:09;22.87;;;13.03;;
8480;SDS011;4277;51.354;6.740;2022-10-31T11:00:39;20.17;;;12.27;;
8480;SDS011;4277;51.354;6.740;2022-10-31T11:03:06;17.93;;;11.23;;
8480;SDS011;4277;51.354;6.740;2022-10-31T11:08:07;21.93;;;12.60;;
8480;SDS011;4277;51.354;6.740;2022-10-31T11:10:34;16.37;;;11.13;;
8480;SDS011;4277;51.354;6.740;2022-10-31T11:13:02;20.67;;;11.80;;
8480;SDS011;4277;51.354;6.740;2022-10-31T11:15:29;18.87;;;12.10;;
8480;SDS011;4277;51.354;6.740;2022-10-31T11:17:56;19.27;;;12.60;;
8480;SDS011;4277;51.354;6.740;2022-10-31T11:20:24;20.80;;;11.87;;
8480;SDS011;4277;51.354;6.740;2022-10-31T11:23:00;16.67;;;10.87;;
8480;SDS011;4277;51.354;6.740;2022-10-31T11:25:26;22.00;;;11.83;;
8480;SDS011;4277;51.354;6.740;2022-10-31T11:27:59;21.07;;;12.00;;
8480;SDS011;4277;51.354;6.740;2022-10-31T11:30:25;26.30;;;12.07;;
8480;SDS011;4277;51.354;6.740;2022-10-31T11:32:51;23.97;;;12.07;;
8480;SDS011;4277;51.354;6.740;2022-10-31T11:35:19;17.90;;;11.17;;
8480;SDS011;4277;51.354;6.740;2022-10-31T11:37:46;15.87;;;10.43;;
8480;SDS011;4277;51.354;6.740;2022-10-31T11:40:16;24.48;;;11.65;;
8480;SDS011;4277;51.354;6.740;2022-10-31T11:42:42;22.90;;;11.53;;
8480;SDS011;4277;51.354;6.740;2022-10-31T11:45:15;19.87;;;11.57;;
8480;SDS011;4277;51.354;6.740;2022-10-31T11:47:43;17.47;;;10.80;;
8480;SDS011;4277;51.354;6.740;2022-10-31T11:50:11;17.97;;;11.50;;
8480;SDS011;4277;51.354;6.740;2022-10-31T11:52:37;17.48;;;11.18;;
8480;SDS011;4277;51.354;6.740;2022-10-31T11:57:50;22.33;;;11.68;;
8480;SDS011;4277;51.354;6.740;2022-10-31T12:00:38;15.57;;;10.65;;
8480;SDS011;4277;51.354;6.740;2022-10-31T12:03:04;21.80;;;12.27;;
8480;SDS011;4277;51.354;6.740;2022-10-31T12:05:31;19.93;;;11.40;;
8480;SDS011;4277;51.354;6.740;2022-10-31T12:07:58;19.85;;;11.15;;
8480;SDS011;4277;51.354;6.740;2022-10-31T12:10:24;14.32;;;9.05;;
8480;SDS011;4277;51.354;6.740;2022-10-31T12:13:08;15.38;;;10.18;;
8480;SDS011;4277;51.354;6.740;2022-10-31T12:15:50;17.27;;;9.80;;
8480;SDS011;4277;51.354;6.740;2022-10-31T12:18:36;20.33;;;9.43;;
8480;SDS011;4277;51.354;6.740;2022-10-31T12:21:19;17.98;;;9.93;;
8480;SDS011;4277;51.354;6.740;2022-10-31T12:29:27;15.70;;;7.63;;
8480;SDS011;4277;51.354;6.740;2022-10-31T12:34:52;18.33;;;7.13;;
8480;SDS011;4277;51.354;6.740;2022-10-31T12:41:17;15.43;;;6.38;;
8480;SDS011;4277;51.354;6.740;2022-10-31T12:49:37;14.20;;;5.38;;
8480;SDS011;4277;51.354;6.740;2022-10-31T12:52:40;9.25;;;5.32;;
8480;SDS011;4277;51.354;6.740;2022-10-31T12:55:26;10.02;;;5.25;;
8480;SDS011;4277;51.354;6.740;2022-10-31T12:58:04;12.18;;;5.25;;
8480;SDS011;4277;51.354;6.740;2022-10-31T13:00:36;11.75;;;5.30;;
8480;SDS011;4277;51.354;6.740;2022-10-31T13:03:41;14.52;;;5.05;;
8480;SDS011;4277;51.354;6.740;2022-10-31T13:06:06;9.80;;;4.60;;
8480;SDS011;4277;51.354;6.740;2022-10-31T13:11:30;9.52;;;4.65;;
8480;SDS011;4277;51.354;6.740;2022-10-31T13:14:11;10.02;;;4.45;;
8480;SDS011;4277;51.354;6.740;2022-10-31T13:16:50;13.85;;;4.90;;
8480;SDS011;4277;51.354;6.740;2022-10-31T13:19:17;11.13;;;4.70;;
8480;SDS011;4277;51.354;6.740;2022-10-31T13:24:20;9.48;;;4.55;;
8480;SDS011;4277;51.354;6.740;2022-10-31T13:26:51;11.48;;;4.43;;
8480;SDS011;4277;51.354;6.740;2022-10-31T13:29:39;8.45;;;4.32;;
8480;SDS011;4277;51.354;6.740;2022-10-31T13:32:13;10.52;;;4.35;;
8480;SDS011;4277;51.354;6.740;2022-10-31T13:34:50;12.15;;;4.45;;
8480;SDS011;4277;51.354;6.740;2022-10-31T13:45:14;10.20;;;3.92;;
8480;SDS011;4277;51.354;6.740;2022-10-31T13:47:41;11.80;;;4.00;;
8480;SDS011;4277;51.354;6.740;2022-10-31T13:50:27;11.02;;;4.10;;
8480;SDS011;4277;51.354;6.740;2022-10-31T13:53:12;12.40;;;4.05;;
8480;SDS011;4277;51.354;6.740;2022-10-31T13:55:45;8.25;;;3.80;;
8480;SDS011;4277;51.354;6.740;2022-10-31T13:58:28;10.65;;;4.22;;
8480;SDS011;4277;51.354;6.740;2022-10-31T14:01:11;9.75;;;3.88;;
8480;SDS011;4277;51.354;6.740;2022-10-31T14:03:41;7.88;;;3.80;;
8480;SDS011;4277;51.354;6.740;2022-10-31T14:06:09;8.38;;;3.72;;
8480;SDS011;4277;51.354;6.740;2022-10-31T14:08:37;6.57;;;3.53;;
8480;SDS011;4277;51.354;6.740;2022-10-31T14:11:08;8.63;;;3.53;;
8480;SDS011;4277;51.354;6.740;2022-10-31T14:13:43;10.68;;;3.97;;
8480;SDS011;4277;51.354;6.740;2022-10-31T14:18:47;8.45;;;3.67;;
8480;SDS011;4277;51.354;6.740;2022-10-31T14:23:47;10.38;;;3.65;;
8480;SDS011;4277;51.354;6.740;2022-10-31T14:28:50;12.63;;;3.60;;
8480;SDS011;4277;51.354;6.740;2022-10-31T14:34:00;11.10;;;3.65;;
8480;SDS011;4277;51.354;6.740;2022-10-31T14:39:47;12.43;;;3.92;;
8480;SDS011;4277;51.354;6.740;2022-10-31T14:48:23;5.63;;;3.33;;
8480;SDS011;4277;51.354;6.740;2022-10-31T14:50:59;9.40;;;3.53;;
8480;SDS011;4277;51.354;6.740;2022-10-31T14:53:26;11.02;;;3.67;;
8480;SDS011;4277;51.354;6.740;2022-10-31T14:55:53;10.65;;;4.07;;
8480;SDS011;4277;51.354;6.740;2022-10-31T14:58:22;10.77;;;3.53;;
8480;SDS011;4277;51.354;6.740;2022-10-31T15:01:17;9.70;;;3.47;;
8480;SDS011;4277;51.354;6.740;2022-10-31T15:03:49;11.55;;;3.72;;
8480;SDS011;4277;51.354;6.740;2022-10-31T15:06:16;6.47;;;3.58;;
8480;SDS011;4277;51.354;6.740;2022-10-31T15:08:48;7.40;;;3.50;;
8480;SDS011;4277;51.354;6.740;2022-10-31T15:11:18;11.05;;;4.00;;
8480;SDS011;4277;51.354;6.740;2022-10-31T15:16:17;8.60;;;3.80;;
8480;SDS011;4277;51.354;6.740;2022-10-31T15:18:49;10.35;;;3.90;;
8480;SDS011;4277;51.354;6.740;2022-10-31T15:21:18;9.52;;;4.10;;
8480;SDS011;4277;51.354;6.740;2022-10-31T15:23:45;8.75;;;3.80;;
8480;SDS011;4277;51.354;6.740;2022-10-31T15:26:17;7.63;;;3.67;;
8480;SDS011;4277;51.354;6.740;2022-10-31T15:28:44;10.60;;;3.60;;
8480;SDS011;4277;51.354;6.740;2022-10-31T15:31:13;8.30;;;3.40;;
8480;SDS011;4277;51.354;6.740;2022-10-31T15:33:41;10.65;;;3.55;;
8480;SDS011;4277;51.354;6.740;2022-10-31T15:36:21;12.68;;;3.97;;
8480;SDS011;4277;51.354;6.740;2022-10-31T15:38:48;11.05;;;3.83;;
8480;SDS011;4277;51.354;6.740;2022-10-31T15:41:35;7.00;;;3.30;;
8480;SDS011;4277;51.354;6.740;2022-10-31T15:44:10;11.48;;;3.83;;
8480;SDS011;4277;51.354;6.740;2022-10-31T15:46:39;9.95;;;3.90;;
8480;SDS011;4277;51.354;6.740;2022-10-31T15:49:10;7.47;;;3.30;;
8480;SDS011;4277;51.354;6.740;2022-10-31T15:51:45;12.90;;;3.83;;
8480;SDS011;4277;51.354;6.740;2022-10-31T15:54:12;10.50;;;3.70;;
8480;SDS011;4277;51.354;6.740;2022-10-31T15:56:39;8.88;;;3.67;;
8480;SDS011;4277;51.354;6.740;2022-10-31T15:59:11;5.30;;;2.92;;
8480;SDS011;4277;51.354;6.740;2022-10-31T16:01:44;9.48;;;3.33;;
8480;SDS011;4277;51.354;6.740;2022-10-31T16:04:25;9.18;;;3.33;;
8480;SDS011;4277;51.354;6.740;2022-10-31T16:07:01;9.65;;;3.22;;
8480;SDS011;4277;51.354;6.740;2022-10-31T16:09:36;8.15;;;3.25;;
8480;SDS011;4277;51.354;6.740;2022-10-31T16:12:02;8.18;;;3.50;;
8480;SDS011;4277;51.354;6.740;2022-10-31T16:14:28;7.75;;;3.00;;
8480;SDS011;4277;51.354;6.740;2022-10-31T16:16:57;8.57;;;3.50;;
8480;SDS011;4277;51.354;6.740;2022-10-31T16:19:26;9.57;;;3.42;;
8480;SDS011;4277;51.354;6.740;2022-10-31T16:22:08;10.32;;;3.17;;
8480;SDS011;4277;51.354;6.740;2022-10-31T16:24:43;12.50;;;3.57;;
8480;SDS011;4277;51.354;6.740;2022-10-31T16:27:19;7.70;;;3.65;;
8480;SDS011;4277;51.354;6.740;2022-10-31T16:29:50;7.63;;;3.15;;
8480;SDS011;4277;51.354;6.740;2022-10-31T16:37:53;8.45;;;3.40;;
8480;SDS011;4277;51.354;6.740;2022-10-31T16:40:19;9.90;;;3.60;;
8480;SDS011;4277;51.354;6.740;2022-10-31T16:42:45;8.20;;;3.42;;
8480;SDS011;4277;51.354;6.740;2022-10-31T16:45:15;11.93;;;3.43;;
8480;SDS011;4277;51.354;6.740;2022-10-31T16:47:48;16.10;;;3.47;;
8480;SDS011;4277;51.354;6.740;2022-10-31T16:50:16;9.63;;;3.67;;
8480;SDS011;4277;51.354;6.740;2022-10-31T16:52:41;12.20;;;3.53;;
8480;SDS011;4277;51.354;6.740;2022-10-31T16:55:10;12.47;;;3.70;;